sensor_id;sensor_type;location;lat;lon;timestamp;pressure;altitude;pressure_sealevel;temperature;humidity
53316;BME280;39204;53.896;11.432;2023-05-11T05:16:11;101354.66;;;14.08;100.00
53316;BME280;39204;53.896;11.432;2023-05-11T05:17:41;101351.34;;;14.00;100.00
53316;BME280;39204;53.896;11.432;2023-05-11T05:19:12;101357.13;;;13.87;100.00
53316;BME280;39204;53.896;11.432;2023-05-11T05:20:42;101351.53;;;13.72;100.00
53316;BME280;39204;53.896;11.432;2023-05-11T05:22:12;101349.44;;;13.74;100.00
53316;BME280;39204;53.896;11.432;2023-05-11T05:23:43;101355.44;;;13.59;100.00
53316;BME280;39204;53.896;11.432;2023-05-11T05:25:13;101355.06;;;13.50;100.00
53316;BME280;39204;53.896;11.432;2023-05-11T05:26:43;101354.06;;;13.56;100.00
53316;BME280;39204;53.896;11.432;2023-05-11T05:28:13;101354.06;;;13.56;100.00
53316;BME280;39204;53.896;11.432;2023-05-11T05:29:44;101353.75;;;13.53;100.00
53316;BME280;39204;53.896;11.432;2023-05-11T05:31:14;101362.84;;;13.47;100.00
53316;BME280;39204;53.896;11.432;2023-05-11T05:32:44;101349.78;;;13.83;100.00
53316;BME280;39204;53.896;11.432;2023-05-11T05:34:15;101355.13;;;13.77;100.00
53316;BME280;39204;53.896;11.432;2023-05-11T05:35:45;101364.91;;;13.84;100.00
53316;BME280;39204;53.896;11.432;2023-05-11T05:37:16;101355.94;;;13.78;100.00
53316;BME280;39204;53.896;11.432;2023-05-11T05:38:46;101359.63;;;13.72;100.00
53316;BME280;39204;53.896;11.432;2023-05-11T05:40:16;101366.72;;;13.56;100.00
53316;BME280;39204;53.896;11.432;2023-05-11T05:41:46;101359.06;;;13.48;100.00
53316;BME280;39204;53.896;11.432;2023-05-11T05:43:17;101361.56;;;13.32;100.00
53316;BME280;39204;53.896;11.432;2023-05-11T05:44:47;101369.94;;;13.19;100.00
53316;BME280;39204;53.896;11.432;2023-05-11T05:46:18;101371.25;;;13.34;100.00
53316;BME280;39204;53.896;11.432;2023-05-11T05:47:48;101383.81;;;13.45;100.00
53316;BME280;39204;53.896;11.432;2023-05-11T05:49:20;101385.19;;;13.47;100.00
53316;BME280;39204;53.896;11.432;2023-05-11T05:50:50;101385.47;;;13.29;100.00
53316;BME280;39204;53.896;11.432;2023-05-11T05:52:21;101389.72;;;13.25;100.00
53316;BME280;39204;53.896;11.432;2023-05-11T05:53:51;101392.06;;;13.04;100.00
53316;BME280;39204;53.896;11.432;2023-05-11T05:55:21;101392.66;;;13.23;100.00
53316;BME280;39204;53.896;11.432;2023-05-11T05:56:51;101398.69;;;13.30;100.00
53316;BME280;39204;53.896;11.432;2023-05-11T05:58:22;101396.84;;;13.53;100.00
53316;BME280;39204;53.896;11.432;2023-05-11T05:59:52;101400.06;;;13.33;100.00
53316;BME280;39204;53.896;11.432;2023-05-11T06:01:22;101396.97;;;13.41;100.00
53316;BME280;39204;53.896;11.432;2023-05-11T06:02:53;101406.44;;;13.27;100.00
53316;BME280;39204;53.896;11.432;2023-05-11T06:04:23;101400.56;;;13.47;100.00
53316;BME280;39204;53.896;11.432;2023-05-11T06:05:53;101400.25;;;13.65;100.00
53316;BME280;39204;53.896;11.432;2023-05-11T06:07:23;101400.31;;;13.70;100.00
53316;BME280;39204;53.896;11.432;2023-05-11T06:08:54;101414.66;;;13.54;100.00
53316;BME280;39204;53.896;11.432;2023-05-11T06:10:24;101409.50;;;13.52;100.00
53316;BME280;39204;53.896;11.432;2023-05-11T06:11:55;101411.56;;;13.45;100.00
53316;BME280;39204;53.896;11.432;2023-05-11T06:13:26;101415.06;;;13.46;100.00
53316;BME280;39204;53.896;11.432;2023-05-11T06:14:56;101413.28;;;13.51;100.00
53316;BME280;39204;53.896;11.432;2023-05-11T06:16:26;101416.81;;;13.35;100.00
53316;BME280;39204;53.896;11.432;2023-05-11T06:17:57;101415.97;;;13.51;100.00
53316;BME280;39204;53.896;11.432;2023-05-11T06:19:27;101418.06;;;13.49;100.00
53316;BME280;39204;53.896;11.432;2023-05-11T06:20:58;101410.75;;;13.45;100.00
53316;BME280;39204;53.896;11.432;2023-05-11T06:22:28;101411.03;;;13.65;100.00
53316;BME280;39204;53.896;11.432;2023-05-11T06:23:58;101403.88;;;13.54;100.00
53316;BME280;39204;53.896;11.432;2023-05-11T06:25:29;101412.22;;;13.74;100.00
53316;BME280;39204;53.896;11.432;2023-05-11T06:26:59;101404.09;;;13.91;100.00
53316;BME280;39204;53.896;11.432;2023-05-11T06:28:29;101405.44;;;13.94;100.00
53316;BME280;39204;53.896;11.432;2023-05-11T06:30:00;101406.34;;;13.99;100.00
53316;BME280;39204;53.896;11.432;2023-05-11T06:31:30;101409.97;;;13.88;100.00
53316;BME280;39204;53.896;11.432;2023-05-11T06:33:00;101407.22;;;13.83;100.00
53316;BME280;39204;53.896;11.432;2023-05-11T06:34:30;101416.03;;;14.00;100.00
53316;BME280;39204;53.896;11.432;2023-05-11T06:36:15;101407.31;;;14.15;100.00
53316;BME280;39204;53.896;11.432;2023-05-11T06:37:46;101410.50;;;14.12;100.00
53316;BME280;39204;53.896;11.432;2023-05-11T06:39:16;101413.13;;;14.29;100.00
53316;BME280;39204;53.896;11.432;2023-05-11T06:40:51;101410.09;;;13.98;100.00
53316;BME280;39204;53.896;11.432;2023-05-11T06:42:21;101408.22;;;13.99;100.00
53316;BME280;39204;53.896;11.432;2023-05-11T06:43:52;101413.44;;;14.06;100.00
53316;BME280;39204;53.896;11.432;2023-05-11T06:45:22;101413.16;;;13.85;100.00
53316;BME280;39204;53.896;11.432;2023-05-11T06:46:52;101415.53;;;14.03;100.00
53316;BME280;39204;53.896;11.432;2023-05-11T06:48:23;101408.22;;;13.99;100.00
53316;BME280;39204;53.896;11.432;2023-05-11T06:49:54;101418.06;;;14.10;100.00
53316;BME280;39204;53.896;11.432;2023-05-11T06:51:25;101417.78;;;14.12;100.00
53316;BME280;39204;53.896;11.432;2023-05-11T06:52:55;101410.75;;;13.84;100.00
53316;BME280;39204;53.896;11.432;2023-05-11T06:54:25;101411.41;;;13.96;100.00
53316;BME280;39204;53.896;11.432;2023-05-11T06:55:56;101412.66;;;13.88;100.00
53316;BME280;39204;53.896;11.432;2023-05-11T06:57:26;101410.75;;;13.84;100.00
53316;BME280;39204;53.896;11.432;2023-05-11T06:58:56;101415.81;;;13.80;100.00
53316;BME280;39204;53.896;11.432;2023-05-11T07:00:26;101412.53;;;13.78;100.00
53316;BME280;39204;53.896;11.432;2023-05-11T07:01:57;101417.94;;;14.00;100.00
53316;BME280;39204;53.896;11.432;2023-05-11T07:03:27;101415.59;;;13.87;100.00
53316;BME280;39204;53.896;11.432;2023-05-11T07:04:57;101417.22;;;14.32;100.00
53316;BME280;39204;53.896;11.432;2023-05-11T07:06:27;101418.41;;;14.46;100.00
53316;BME280;39204;53.896;11.432;2023-05-11T07:07:58;101415.47;;;14.47;100.00
53316;BME280;39204;53.896;11.432;2023-05-11T07:09:29;101414.28;;;14.87;100.00
53316;BME280;39204;53.896;11.432;2023-05-11T07:10:59;101414.81;;;15.27;100.00
53316;BME280;39204;53.896;11.432;2023-05-11T07:12:29;101412.19;;;15.37;100.00
53316;BME280;39204;53.896;11.432;2023-05-11T07:13:59;101406.56;;;15.48;100.00
53316;BME280;39204;53.896;11.432;2023-05-11T07:15:30;101411.63;;;15.82;100.00
53316;BME280;39204;53.896;11.432;2023-05-11T07:17:00;101405.69;;;15.80;100.00
53316;BME280;39204;53.896;11.432;2023-05-11T07:18:30;101411.56;;;15.72;100.00
53316;BME280;39204;53.896;11.432;2023-05-11T07:20:00;101406.63;;;15.54;100.00
53316;BME280;39204;53.896;11.432;2023-05-11T07:21:31;101414.97;;;15.52;100.00
53316;BME280;39204;53.896;11.432;2023-05-11T07:23:02;101409.19;;;15.33;100.00
53316;BME280;39204;53.896;11.432;2023-05-11T07:24:32;101417.31;;;15.38;100.00
53316;BME280;39204;53.896;11.432;2023-05-11T07:26:02;101416.06;;;15.56;100.00
53316;BME280;39204;53.896;11.432;2023-05-11T07:27:37;101411.53;;;15.62;100.00
53316;BME280;39204;53.896;11.432;2023-05-11T07:29:08;101408.81;;;16.35;100.00
53316;BME280;39204;53.896;11.432;2023-05-11T07:30:38;101410.91;;;16.07;100.00
53316;BME280;39204;53.896;11.432;2023-05-11T07:32:08;101403.94;;;16.21;100.00
53316;BME280;39204;53.896;11.432;2023-05-11T07:33:39;101413.00;;;15.90;100.00
53316;BME280;39204;53.896;11.432;2023-05-11T07:35:09;101414.09;;;15.89;100.00
53316;BME280;39204;53.896;11.432;2023-05-11T07:36:40;101410.81;;;15.82;100.00
53316;BME280;39204;53.896;11.432;2023-05-11T07:38:10;101413.09;;;16.15;100.00
53316;BME280;39204;53.896;11.432;2023-05-11T07:39:42;101404.88;;;15.85;100.00
53316;BME280;39204;53.896;11.432;2023-05-11T07:41:13;101403.28;;;15.94;100.00
53316;BME280;39204;53.896;11.432;2023-05-11T07:42:43;101408.16;;;15.92;100.00
53316;BME280;39204;53.896;11.432;2023-05-11T07:44:13;101414.59;;;15.81;100.00
53316;BME280;39204;53.896;11.432;2023-05-11T07:45:43;101413.38;;;16.14;100.00
53316;BME280;39204;53.896;11.432;2023-05-11T07:47:14;101420.00;;;17.00;100.00
53316;BME280;39204;53.896;11.432;2023-05-11T07:48:45;101420.81;;;17.00;100.00
53316;BME280;39204;53.896;11.432;2023-05-11T07:50:16;101413.50;;;16.75;100.00
53316;BME280;39204;53.896;11.432;2023-05-11T07:51:46;101413.53;;;16.96;100.00
53316;BME280;39204;53.896;11.432;2023-05-11T07:53:16;101417.28;;;17.35;100.00
53316;BME280;39204;53.896;11.432;2023-05-11T07:54:46;101420.78;;;17.41;100.00
53316;BME280;39204;53.896;11.432;2023-05-11T07:56:17;101417.19;;;17.66;100.00
53316;BME280;39204;53.896;11.432;2023-05-11T07:57:47;101419.44;;;17.13;100.00
53316;BME280;39204;53.896;11.432;2023-05-11T07:59:17;101419.19;;;17.14;100.00
53316;BME280;39204;53.896;11.432;2023-05-11T08:00:48;101416.22;;;17.06;100.00
53316;BME280;39204;53.896;11.432;2023-05-11T08:02:18;101413.28;;;17.98;100.00
53316;BME280;39204;53.896;11.432;2023-05-11T08:03:48;101412.19;;;18.48;100.00
53316;BME280;39204;53.896;11.432;2023-05-11T08:05:19;101416.28;;;17.96;100.00
53316;BME280;39204;53.896;11.432;2023-05-11T08:06:49;101413.91;;;17.79;100.00
53316;BME280;39204;53.896;11.432;2023-05-11T08:08:20;101418.25;;;17.80;100.00
53316;BME280;39204;53.896;11.432;2023-05-11T08:09:50;101422.16;;;17.33;100.00
53316;BME280;39204;53.896;11.432;2023-05-11T08:11:20;101418.91;;;18.11;100.00
53316;BME280;39204;53.896;11.432;2023-05-11T08:12:51;101413.81;;;18.00;100.00
53316;BME280;39204;53.896;11.432;2023-05-11T08:14:22;101419.22;;;18.49;100.00
53316;BME280;39204;53.896;11.432;2023-05-11T08:15:53;101419.53;;;18.43;100.00
53316;BME280;39204;53.896;11.432;2023-05-11T08:17:23;101419.97;;;18.16;100.00
53316;BME280;39204;53.896;11.432;2023-05-11T08:18:53;101414.88;;;18.93;100.00
53316;BME280;39204;53.896;11.432;2023-05-11T08:20:23;101420.88;;;18.90;100.00
53316;BME280;39204;53.896;11.432;2023-05-11T08:21:54;101423.41;;;18.31;100.00
53316;BME280;39204;53.896;11.432;2023-05-11T08:23:24;101421.22;;;17.74;100.00
53316;BME280;39204;53.896;11.432;2023-05-11T08:24:55;101413.69;;;18.65;100.00
53316;BME280;39204;53.896;11.432;2023-05-11T08:26:25;101423.00;;;18.09;100.00
53316;BME280;39204;53.896;11.432;2023-05-11T08:27:56;101422.00;;;17.89;100.00
53316;BME280;39204;53.896;11.432;2023-05-11T08:29:26;101422.66;;;17.51;100.00
53316;BME280;39204;53.896;11.432;2023-05-11T08:30:57;101422.28;;;17.88;100.00
53316;BME280;39204;53.896;11.432;2023-05-11T08:32:28;101420.69;;;17.82;100.00
53316;BME280;39204;53.896;11.432;2023-05-11T08:33:59;101421.25;;;18.33;100.00
53316;BME280;39204;53.896;11.432;2023-05-11T08:35:29;101418.47;;;18.83;100.00
53316;BME280;39204;53.896;11.432;2023-05-11T08:36:59;101424.09;;;18.08;100.00
53316;BME280;39204;53.896;11.432;2023-05-11T08:38:30;101414.31;;;18.56;100.00
53316;BME280;39204;53.896;11.432;2023-05-11T08:40:02;101414.53;;;18.65;100.00
53316;BME280;39204;53.896;11.432;2023-05-11T08:41:33;101416.41;;;18.25;100.00
53316;BME280;39204;53.896;11.432;2023-05-11T08:43:04;101419.53;;;18.43;100.00
53316;BME280;39204;53.896;11.432;2023-05-11T08:44:37;101417.47;;;18.74;100.00
53316;BME280;39204;53.896;11.432;2023-05-11T08:46:13;101414.84;;;18.14;100.00
53316;BME280;39204;53.896;11.432;2023-05-11T08:47:46;101422.91;;;18.74;100.00
53316;BME280;39204;53.896;11.432;2023-05-11T08:49:17;101419.44;;;18.97;100.00
53316;BME280;39204;53.896;11.432;2023-05-11T08:50:48;101420.47;;;18.67;100.00
53316;BME280;39204;53.896;11.432;2023-05-11T08:52:19;101420.88;;;18.06;100.00
53316;BME280;39204;53.896;11.432;2023-05-11T08:53:49;101425.25;;;17.92;100.00
53316;BME280;39204;53.896;11.432;2023-05-11T08:55:21;101418.00;;;17.66;100.00
53316;BME280;39204;53.896;11.432;2023-05-11T08:56:53;101413.13;;;18.28;100.00
53316;BME280;39204;53.896;11.432;2023-05-11T08:58:23;101416.91;;;18.32;100.00
53316;BME280;39204;53.896;11.432;2023-05-11T08:59:55;101416.72;;;17.44;100.00
53316;BME280;39204;53.896;11.432;2023-05-11T09:01:27;101427.47;;;17.84;100.00
53316;BME280;39204;53.896;11.432;2023-05-11T09:02:58;101416.59;;;17.79;100.00
53316;BME280;39204;53.896;11.432;2023-05-11T09:04:29;101414.09;;;17.98;100.00
53316;BME280;39204;53.896;11.432;2023-05-11T09:06:01;101422.94;;;17.54;100.00
53316;BME280;39204;53.896;11.432;2023-05-11T09:07:34;101425.63;;;17.39;100.00
53316;BME280;39204;53.896;11.432;2023-05-11T09:09:05;101411.97;;;17.90;100.00
53316;BME280;39204;53.896;11.432;2023-05-11T09:10:35;101419.03;;;17.91;100.00
53316;BME280;39204;53.896;11.432;2023-05-11T09:12:08;101414.69;;;18.40;100.00
53316;BME280;39204;53.896;11.432;2023-05-11T09:13:38;101408.84;;;18.61;100.00
53316;BME280;39204;53.896;11.432;2023-05-11T09:15:09;101414.03;;;18.58;100.00
53316;BME280;39204;53.896;11.432;2023-05-11T09:16:39;101411.47;;;18.77;100.00
53316;BME280;39204;53.896;11.432;2023-05-11T09:18:10;101404.56;;;18.90;100.00
53316;BME280;39204;53.896;11.432;2023-05-11T09:20:00;101410.44;;;19.02;100.00
53316;BME280;39204;53.896;11.432;2023-05-11T09:21:31;101415.59;;;19.03;100.00
53316;BME280;39204;53.896;11.432;2023-05-11T09:23:01;101418.56;;;18.68;100.00
53316;BME280;39204;53.896;11.432;2023-05-11T09:24:32;101413.75;;;18.94;100.00
53316;BME280;39204;53.896;11.432;2023-05-11T09:26:02;101413.41;;;18.32;100.00
53316;BME280;39204;53.896;11.432;2023-05-11T09:27:33;101407.63;;;18.38;100.00
53316;BME280;39204;53.896;11.432;2023-05-11T09:29:03;101408.22;;;18.35;100.00
53316;BME280;39204;53.896;11.432;2023-05-11T09:30:34;101411.13;;;17.95;100.00
53316;BME280;39204;53.896;11.432;2023-05-11T09:32:04;101407.47;;;18.20;100.00
53316;BME280;39204;53.896;11.432;2023-05-11T09:33:35;101409.72;;;18.52;100.00
53316;BME280;39204;53.896;11.432;2023-05-11T09:35:17;101411.00;;;18.20;100.00
53316;BME280;39204;53.896;11.432;2023-05-11T09:36:52;101408.41;;;18.44;100.00
53316;BME280;39204;53.896;11.432;2023-05-11T09:38:23;101406.69;;;18.14;100.00
53316;BME280;39204;53.896;11.432;2023-05-11T09:39:54;101410.63;;;17.82;100.00
53316;BME280;39204;53.896;11.432;2023-05-11T09:41:24;101414.66;;;18.45;100.00
53316;BME280;39204;53.896;11.432;2023-05-11T09:42:55;101410.19;;;18.20;100.00
53316;BME280;39204;53.896;11.432;2023-05-11T09:44:30;101407.56;;;18.04;100.00
53316;BME280;39204;53.896;11.432;2023-05-11T09:46:00;101403.91;;;18.29;100.00
53316;BME280;39204;53.896;11.432;2023-05-11T09:47:38;101402.06;;;18.59;100.00
53316;BME280;39204;53.896;11.432;2023-05-11T09:49:10;101412.25;;;18.38;100.00
53316;BME280;39204;53.896;11.432;2023-05-11T09:50:41;101412.59;;;17.56;100.00
53316;BME280;39204;53.896;11.432;2023-05-11T09:52:15;101413.19;;;17.43;100.00
53316;BME280;39204;53.896;11.432;2023-05-11T09:53:46;101405.22;;;17.72;100.00
53316;BME280;39204;53.896;11.432;2023-05-11T09:55:16;101405.84;;;18.19;100.00
53316;BME280;39204;53.896;11.432;2023-05-11T09:56:51;101401.56;;;18.52;100.00
53316;BME280;39204;53.896;11.432;2023-05-11T09:58:44;101402.38;;;18.08;100.00
53316;BME280;39204;53.896;11.432;2023-05-11T10:00:15;101405.56;;;18.25;100.00
53316;BME280;39204;53.896;11.432;2023-05-11T10:01:45;101401.44;;;18.33;100.00
53316;BME280;39204;53.896;11.432;2023-05-11T10:03:16;101396.81;;;18.33;100.00
53316;BME280;39204;53.896;11.432;2023-05-11T10:04:47;101394.22;;;18.52;100.00
53316;BME280;39204;53.896;11.432;2023-05-11T10:06:18;101395.03;;;18.58;100.00
53316;BME280;39204;53.896;11.432;2023-05-11T10:07:56;101396.03;;;18.67;100.00
53316;BME280;39204;53.896;11.432;2023-05-11T10:09:27;101399.97;;;18.51;100.00
53316;BME280;39204;53.896;11.432;2023-05-11T10:10:57;101392.97;;;18.40;100.00
53316;BME280;39204;53.896;11.432;2023-05-11T10:12:28;101390.97;;;18.90;100.00
53316;BME280;39204;53.896;11.432;2023-05-11T10:14:00;101395.66;;;18.84;100.00
53316;BME280;39204;53.896;11.432;2023-05-11T10:15:32;101399.22;;;18.40;100.00
53316;BME280;39204;53.896;11.432;2023-05-11T10:17:04;101400.81;;;18.85;100.00
53316;BME280;39204;53.896;11.432;2023-05-11T10:18:35;101391.53;;;18.86;100.00
53316;BME280;39204;53.896;11.432;2023-05-11T10:20:06;101385.50;;;18.21;100.00
53316;BME280;39204;53.896;11.432;2023-05-11T10:21:37;101392.53;;;18.22;100.00
53316;BME280;39204;53.896;11.432;2023-05-11T10:23:09;101391.88;;;18.41;100.00
53316;BME280;39204;53.896;11.432;2023-05-11T10:24:40;101379.34;;;18.45;100.00
53316;BME280;39204;53.896;11.432;2023-05-11T10:26:11;101391.88;;;18.41;100.00
53316;BME280;39204;53.896;11.432;2023-05-11T10:27:42;101388.16;;;18.66;100.00
53316;BME280;39204;53.896;11.432;2023-05-11T10:29:13;101381.94;;;18.60;100.00
53316;BME280;39204;53.896;11.432;2023-05-11T10:30:44;101386.91;;;18.87;100.00
53316;BME280;39204;53.896;11.432;2023-05-11T10:32:16;101387.84;;;19.06;100.00
53316;BME280;39204;53.896;11.432;2023-05-11T10:33:48;101389.47;;;18.34;100.00
53316;BME280;39204;53.896;11.432;2023-05-11T10:35:20;101387.41;;;18.21;100.00
53316;BME280;39204;53.896;11.432;2023-05-11T10:36:51;101391.03;;;18.01;100.00
53316;BME280;39204;53.896;11.432;2023-05-11T10:38:23;101393.13;;;18.53;100.00
53316;BME280;39204;53.896;11.432;2023-05-11T10:39:56;101390.78;;;18.42;100.00
53316;BME280;39204;53.896;11.432;2023-05-11T10:41:52;101395.50;;;18.26;100.00
53316;BME280;39204;53.896;11.432;2023-05-11T10:49:57;101405.59;;;17.35;100.00
53316;BME280;39204;53.896;11.432;2023-05-11T10:51:42;101406.69;;;17.24;100.00
53316;BME280;39204;53.896;11.432;2023-05-11T10:53:29;101405.38;;;17.21;100.00
53316;BME280;39204;53.896;11.432;2023-05-11T10:58:06;101406.22;;;16.81;100.00
53316;BME280;39204;53.896;11.432;2023-05-11T11:01:36;101398.19;;;17.66;100.00
53316;BME280;39204;53.896;11.432;2023-05-11T11:03:10;101397.72;;;17.38;100.00
53316;BME280;39204;53.896;11.432;2023-05-11T11:04:48;101399.97;;;17.11;100.00
53316;BME280;39204;53.896;11.432;2023-05-11T11:06:22;101398.28;;;17.40;100.00
53316;BME280;39204;53.896;11.432;2023-05-11T11:07:59;101396.88;;;17.58;100.00
53316;BME280;39204;53.896;11.432;2023-05-11T11:11:30;101392.53;;;17.57;100.00
53316;BME280;39204;53.896;11.432;2023-05-11T11:13:05;101388.97;;;17.67;100.00
53316;BME280;39204;53.896;11.432;2023-05-11T11:14:56;101401.75;;;17.61;100.00
53316;BME280;39204;53.896;11.432;2023-05-11T11:16:28;101391.75;;;17.41;100.00
53316;BME280;39204;53.896;11.432;2023-05-11T11:18:18;101393.81;;;17.85;100.00
53316;BME280;39204;53.896;11.432;2023-05-11T11:19:48;101392.16;;;17.89;100.00
53316;BME280;39204;53.896;11.432;2023-05-11T11:21:37;101386.56;;;18.25;100.00
53316;BME280;39204;53.896;11.432;2023-05-11T11:25:14;101379.69;;;18.72;100.00
53316;BME280;39204;53.896;11.432;2023-05-11T11:26:48;101384.75;;;18.50;100.00
53316;BME280;39204;53.896;11.432;2023-05-11T11:28:19;101394.28;;;18.47;100.00
53316;BME280;39204;53.896;11.432;2023-05-11T11:31:44;101377.44;;;18.06;100.00
53316;BME280;39204;53.896;11.432;2023-05-11T11:34:45;101376.09;;;17.98;100.00
53316;BME280;39204;53.896;11.432;2023-05-11T11:36:16;101383.94;;;18.05;100.00
53316;BME280;39204;53.896;11.432;2023-05-11T11:37:59;101384.69;;;18.16;100.00
53316;BME280;39204;53.896;11.432;2023-05-11T11:41:10;101372.94;;;18.65;100.00
53316;BME280;39204;53.896;11.432;2023-05-11T11:43:09;101385.31;;;18.47;100.00
53316;BME280;39204;53.896;11.432;2023-05-11T11:44:41;101381.47;;;18.13;100.00
53316;BME280;39204;53.896;11.432;2023-05-11T11:46:27;101377.84;;;18.28;100.00
53316;BME280;39204;53.896;11.432;2023-05-11T11:48:11;101396.56;;;18.30;100.00
53316;BME280;39204;53.896;11.432;2023-05-11T11:49:43;101390.16;;;18.55;100.00
53316;BME280;39204;53.896;11.432;2023-05-11T11:51:14;101392.31;;;18.58;100.00
53316;BME280;39204;53.896;11.432;2023-05-11T11:52:45;101384.59;;;18.70;100.00
53316;BME280;39204;53.896;11.432;2023-05-11T11:54:35;101385.34;;;18.42;100.00
53316;BME280;39204;53.896;11.432;2023-05-11T11:56:07;101378.69;;;18.63;100.00
53316;BME280;39204;53.896;11.432;2023-05-11T11:57:41;101382.38;;;18.38;100.00
53316;BME280;39204;53.896;11.432;2023-05-11T11:59:13;101390.72;;;18.52;100.00
53316;BME280;39204;53.896;11.432;2023-05-11T12:00:46;101388.63;;;18.38;100.00
53316;BME280;39204;53.896;11.432;2023-05-11T12:02:16;101383.03;;;18.20;100.00
53316;BME280;39204;53.896;11.432;2023-05-11T12:03:57;101381.00;;;18.41;100.00
53316;BME280;39204;53.896;11.432;2023-05-11T12:05:39;101386.91;;;18.53;100.00
53316;BME280;39204;53.896;11.432;2023-05-11T12:07:14;101377.16;;;18.86;100.00
53316;BME280;39204;53.896;11.432;2023-05-11T12:08:45;101372.28;;;18.83;100.00
53316;BME280;39204;53.896;11.432;2023-05-11T12:10:16;101377.88;;;18.62;100.00
53316;BME280;39204;53.896;11.432;2023-05-11T12:11:48;101376.28;;;18.56;100.00
53316;BME280;39204;53.896;11.432;2023-05-11T12:13:18;101380.97;;;18.46;100.00
53316;BME280;39204;53.896;11.432;2023-05-11T12:14:49;101385.47;;;19.00;100.00
53316;BME280;39204;53.896;11.432;2023-05-11T12:16:20;101366.94;;;19.55;100.00
53316;BME280;39204;53.896;11.432;2023-05-11T12:17:50;101382.25;;;19.46;100.00
53316;BME280;39204;53.896;11.432;2023-05-11T12:19:23;101382.00;;;18.89;100.00
53316;BME280;39204;53.896;11.432;2023-05-11T12:20:53;101384.19;;;18.87;100.00
53316;BME280;39204;53.896;11.432;2023-05-11T12:22:24;101381.72;;;18.91;100.00
53316;BME280;39204;53.896;11.432;2023-05-11T12:24:00;101376.97;;;18.72;100.00
53316;BME280;39204;53.896;11.432;2023-05-11T12:25:30;101384.81;;;18.79;100.00
53316;BME280;39204;53.896;11.432;2023-05-11T12:27:02;101385.97;;;19.02;100.00
53316;BME280;39204;53.896;11.432;2023-05-11T12:28:32;101379.47;;;18.98;100.00
53316;BME280;39204;53.896;11.432;2023-05-11T12:30:03;101376.56;;;19.42;100.00
53316;BME280;39204;53.896;11.432;2023-05-11T12:31:34;101382.25;;;19.46;100.00
53316;BME280;39204;53.896;11.432;2023-05-11T12:33:06;101382.50;;;18.96;100.00
53316;BME280;39204;53.896;11.432;2023-05-11T12:34:37;101386.69;;;19.13;100.00
53316;BME280;39204;53.896;11.432;2023-05-11T12:36:07;101385.38;;;19.10;100.00
53316;BME280;39204;53.896;11.432;2023-05-11T12:37:40;101382.34;;;19.12;100.00
53316;BME280;39204;53.896;11.432;2023-05-11T12:39:19;101380.75;;;19.58;100.00
53316;BME280;39204;53.896;11.432;2023-05-11T12:40:51;101377.00;;;19.54;100.00
53316;BME280;39204;53.896;11.432;2023-05-11T12:42:22;101385.03;;;18.88;100.00
53316;BME280;39204;53.896;11.432;2023-05-11T12:43:53;101384.25;;;19.11;100.00
53316;BME280;39204;53.896;11.432;2023-05-11T12:45:26;101376.38;;;19.09;100.00
53316;BME280;39204;53.896;11.432;2023-05-11T12:46:56;101378.69;;;18.63;100.00
53316;BME280;39204;53.896;11.432;2023-05-11T12:48:27;101382.97;;;18.30;100.00
53316;BME280;39204;53.896;11.432;2023-05-11T12:49:57;101383.94;;;18.10;100.00
53316;BME280;39204;53.896;11.432;2023-05-11T12:51:50;101387.44;;;18.10;100.00
53316;BME280;39204;53.896;11.432;2023-05-11T12:53:21;101387.31;;;17.81;100.00
53316;BME280;39204;53.896;11.432;2023-05-11T12:54:51;101383.50;;;17.82;100.00
53316;BME280;39204;53.896;11.432;2023-05-11T12:56:24;101377.84;;;17.74;100.00
53316;BME280;39204;53.896;11.432;2023-05-11T12:58:15;101387.31;;;17.71;100.00
53316;BME280;39204;53.896;11.432;2023-05-11T12:59:45;101374.72;;;18.06;100.00
53316;BME280;39204;53.896;11.432;2023-05-11T13:01:22;101373.44;;;18.37;100.00
53316;BME280;39204;53.896;11.432;2023-05-11T13:02:55;101372.00;;;18.45;100.00
53316;BME280;39204;53.896;11.432;2023-05-11T13:04:29;101365.63;;;18.26;100.00
53316;BME280;39204;53.896;11.432;2023-05-11T13:06:18;101363.47;;;18.62;100.00
53316;BME280;39204;53.896;11.432;2023-05-11T13:09:27;101364.28;;;18.97;100.00
53316;BME280;39204;53.896;11.432;2023-05-11T13:11:20;101368.25;;;18.80;100.00
53316;BME280;39204;53.896;11.432;2023-05-11T13:12:52;101374.28;;;18.67;100.00
53316;BME280;39204;53.896;11.432;2023-05-11T13:14:22;101374.41;;;18.52;100.00
53316;BME280;39204;53.896;11.432;2023-05-11T13:15:53;101360.84;;;18.86;100.00
53316;BME280;39204;53.896;11.432;2023-05-11T13:17:30;101364.94;;;19.13;100.00
53316;BME280;39204;53.896;11.432;2023-05-11T13:19:05;101365.91;;;18.63;100.00
53316;BME280;39204;53.896;11.432;2023-05-11T13:20:37;101367.16;;;18.81;100.00
53316;BME280;39204;53.896;11.432;2023-05-11T13:22:09;101360.53;;;18.58;100.00
53316;BME280;39204;53.896;11.432;2023-05-11T13:23:40;101365.31;;;18.72;100.00
53316;BME280;39204;53.896;11.432;2023-05-11T13:25:10;101358.44;;;18.79;100.00
53316;BME280;39204;53.896;11.432;2023-05-11T13:26:40;101347.75;;;18.93;100.00
53316;BME280;39204;53.896;11.432;2023-05-11T13:28:16;101351.78;;;18.96;100.00